Time;durP1;ratioP1;P1;durP2;ratioP2;P2;SDS_P1;SDS_P2;PMS_P1;PMS_P2;Temp;Humidity;BMP_temperature;BMP_pressure;BME280_temperature;BME280_humidity;BME280_pressure;Samples;Min_cycle;Max_cycle;Signal;HPM_P1;HPM_P2
2023/06/20 00:01:02;;;;;;;26.73;24.03;;;20.40;99.90;;;;;;6255588;23;20460;-85
2023/06/20 00:03:29;;;;;;;27.67;25.07;;;20.40;99.90;;;;;;6258699;23;20428;-85
2023/06/20 00:05:56;;;;;;;24.40;22.27;;;20.30;1.00;;;;;;6254948;23;20441;-86
2023/06/20 00:08:23;;;;;;;26.23;23.80;;;;;;;;;;6254307;22;20814;-86
2023/06/20 00:10:50;;;;;;;26.73;23.97;;;20.30;99.90;;;;;;6259981;23;20397;-85
2023/06/20 00:13:17;;;;;;;26.23;23.77;;;20.30;99.90;;;;;;6260809;23;20436;-84
2023/06/20 00:15:46;;;;;;;25.97;23.30;;;20.30;99.90;;;;;;6265126;23;20404;-84
2023/06/20 00:18:12;;;;;;;27.57;24.77;;;20.20;99.90;;;;;;6265696;22;20425;-87
2023/06/20 00:20:39;;;;;;;26.73;24.33;;;20.20;99.90;;;;;;6263888;23;20408;-84
2023/06/20 00:23:06;;;;;;;26.90;24.20;;;20.30;99.90;;;;;;6257662;23;20440;-85
2023/06/20 00:25:33;;;;;;;26.30;23.77;;;20.30;99.90;;;;;;6259034;23;20464;-84
2023/06/20 00:28:02;;;;;;;28.07;25.37;;;;;;;;;;6254101;22;20429;-85
2023/06/20 00:30:29;;;;;;;27.20;24.50;;;20.20;1.00;;;;;;6257489;23;20413;-85
2023/06/20 00:32:58;;;;;;;27.80;24.67;;;20.20;1.00;;;;;;6265809;23;20416;-84
2023/06/20 00:35:26;;;;;;;26.93;23.97;;;20.00;99.90;;;;;;6266853;23;20485;-85
2023/06/20 00:37:52;;;;;;;27.17;24.67;;;20.10;1.00;;;;;;6264957;22;20460;-84
2023/06/20 00:40:20;;;;;;;28.20;25.50;;;;;;;;;;6259249;23;20432;-85
2023/06/20 00:42:48;;;;;;;29.40;26.67;;;20.00;99.90;;;;;;6256710;23;20434;-85
2023/06/20 00:45:32;;;;;;;27.37;24.70;;;19.90;99.90;;;;;;6269141;22;20947;-84
2023/06/20 00:48:01;;;;;;;27.17;24.33;;;19.90;99.90;;;;;;6261094;22;20425;-85
2023/06/20 00:50:30;;;;;;;27.70;25.10;;;20.00;99.90;;;;;;6256386;23;20488;-85
2023/06/20 00:53:00;;;;;;;26.83;24.43;;;19.90;99.90;;;;;;6257097;23;20405;-86
2023/06/20 00:55:28;;;;;;;26.60;24.20;;;19.80;99.90;;;;;;6267895;22;20385;-82
2023/06/20 00:57:58;;;;;;;26.30;23.87;;;19.90;99.90;;;;;;6275774;22;20493;-83
2023/06/20 01:00:26;;;;;;;26.17;23.57;;;19.90;99.90;;;;;;6261336;22;20422;-85
2023/06/20 01:02:56;;;;;;;26.73;24.23;;;19.80;99.90;;;;;;6255119;23;20508;-85
2023/06/20 01:05:27;;;;;;;27.63;25.03;;;19.70;99.90;;;;;;6256373;23;20484;-85
2023/06/20 01:08:04;;;;;;;28.77;25.73;;;19.70;99.90;;;;;;6254480;22;20410;-85
2023/06/20 01:10:40;;;;;;;27.67;25.00;;;19.60;99.90;;;;;;6257570;23;20465;-85
2023/06/20 01:13:15;;;;;;;26.13;23.70;;;19.60;99.90;;;;;;6256358;23;20461;-85
2023/06/20 01:15:46;;;;;;;26.90;24.17;;;19.30;1.00;;;;;;6268071;23;20369;-83
2023/06/20 01:18:18;;;;;;;28.90;25.90;;;19.50;99.90;;;;;;6271526;22;20429;-84
2023/06/20 01:20:52;;;;;;;26.13;23.73;;;19.70;99.90;;;;;;6270454;23;20386;-84
2023/06/20 01:23:29;;;;;;;25.90;23.60;;;19.70;99.90;;;;;;6255440;23;20389;-85
2023/06/20 01:26:02;;;;;;;26.87;24.00;;;19.70;99.90;;;;;;6254822;23;20770;-86
2023/06/20 01:28:38;;;;;;;27.00;24.50;;;19.60;99.90;;;;;;6255996;22;20798;-86
2023/06/20 01:31:10;;;;;;;26.57;23.93;;;19.50;99.90;;;;;;6255115;23;20393;-85
2023/06/20 01:33:45;;;;;;;27.03;24.33;;;19.40;99.90;;;;;;6254182;23;20700;-85
2023/06/20 01:36:15;;;;;;;26.57;24.07;;;19.40;99.90;;;;;;6255647;23;20413;-84
2023/06/20 01:38:46;;;;;;;26.50;24.00;;;19.30;1.00;;;;;;6254361;22;20432;-84
2023/06/20 01:41:15;;;;;;;26.03;23.63;;;19.40;99.90;;;;;;6255452;23;20461;-84
2023/06/20 01:43:43;;;;;;;25.33;22.83;;;19.30;99.90;;;;;;6255223;23;20916;-84
2023/06/20 01:46:11;;;;;;;26.30;23.77;;;19.20;99.90;;;;;;6254685;23;20437;-85
2023/06/20 01:48:40;;;;;;;27.30;24.80;;;19.20;1.00;;;;;;6257890;22;20421;-85
2023/06/20 01:51:06;;;;;;;26.23;23.73;;;19.20;1.00;;;;;;6262560;23;20405;-84
2023/06/20 01:53:36;;;;;;;27.53;24.83;;;19.30;1.00;;;;;;6269970;23;20425;-85
2023/06/20 01:56:05;;;;;;;25.37;23.03;;;19.30;1.00;;;;;;6268399;23;20429;-84
2023/06/20 01:58:34;;;;;;;26.80;24.30;;;19.30;99.90;;;;;;6257708;22;20500;-86
2023/06/20 02:01:02;;;;;;;27.83;24.80;;;19.40;99.90;;;;;;6257108;23;20401;-86
2023/06/20 02:03:30;;;;;;;26.10;23.47;;;19.40;99.90;;;;;;6255342;23;20408;-86
2023/06/20 02:05:59;;;;;;;26.27;23.77;;;19.50;99.90;;;;;;6251312;23;20441;-85
2023/06/20 02:08:27;;;;;;;27.20;24.53;;;19.40;99.90;;;;;;6249977;22;20984;-86
2023/06/20 02:10:54;;;;;;;27.37;24.67;;;19.40;99.90;;;;;;6254214;23;20412;-84
2023/06/20 02:13:24;;;;;;;27.43;24.73;;;19.40;99.90;;;;;;6257607;23;20411;-84
2023/06/20 02:15:52;;;;;;;26.87;24.27;;;19.40;99.90;;;;;;6260237;23;20448;-85
2023/06/20 02:18:20;;;;;;;26.37;23.93;;;19.30;99.90;;;;;;6258985;22;20428;-85
2023/06/20 02:20:50;;;;;;;25.33;22.87;;;19.40;1.00;;;;;;6254602;23;20405;-84
2023/06/20 02:23:23;;;;;;;28.20;25.47;;;19.40;99.90;;;;;;6253752;23;20406;-85
2023/06/20 02:25:51;;;;;;;26.80;24.17;;;19.30;99.90;;;;;;6252795;23;20508;-85
2023/06/20 02:28:18;;;;;;;27.93;24.97;;;19.30;99.90;;;;;;6252523;22;20437;-85
2023/06/20 02:30:48;;;;;;;26.70;24.23;;;19.30;1.00;;;;;;6254884;23;20412;-85
2023/06/20 02:33:16;;;;;;;29.40;26.30;;;;;;;;;;6253540;23;20401;-85
2023/06/20 02:35:44;;;;;;;28.27;25.03;;;19.30;1.00;;;;;;6252632;23;20405;-85
2023/06/20 02:38:11;;;;;;;26.40;23.87;;;19.30;99.90;;;;;;6253486;22;20821;-84
2023/06/20 02:40:38;;;;;;;27.47;24.87;;;19.30;99.90;;;;;;6253718;23;20415;-85
2023/06/20 02:43:06;;;;;;;28.23;25.53;;;19.10;1.00;;;;;;6252822;23;20522;-85
2023/06/20 02:45:33;;;;;;;27.70;25.00;;;19.30;99.90;;;;;;6253226;23;20816;-85
2023/06/20 02:48:12;;;;;;;27.97;24.77;;;19.30;99.90;;;;;;6253011;22;20819;-85
2023/06/20 02:50:48;;;;;;;26.87;24.37;;;19.30;99.90;;;;;;6252769;23;20386;-85
2023/06/20 02:53:28;;;;;;;26.80;24.17;;;19.30;1.00;;;;;;6253118;23;20481;-85
2023/06/20 02:56:00;;;;;;;26.30;23.80;;;19.30;1.00;;;;;;6253371;23;20401;-85
2023/06/20 02:58:29;;;;;;;26.73;24.10;;;19.20;1.00;;;;;;6254003;22;20437;-85
2023/06/20 03:00:59;;;;;;;28.57;25.80;;;19.20;99.90;;;;;;6255329;23;20477;-85
2023/06/20 03:03:32;;;;;;;27.17;24.50;;;19.20;1.00;;;;;;6255298;23;20414;-85
2023/06/20 03:06:00;;;;;;;25.67;23.17;;;19.30;1.00;;;;;;6254363;23;20513;-85
2023/06/20 03:08:29;;;;;;;27.63;24.83;;;19.20;1.00;;;;;;6253079;22;20461;-85
2023/06/20 03:10:57;;;;;;;26.23;23.70;;;19.20;99.90;;;;;;6253803;23;20504;-85
2023/06/20 03:13:24;;;;;;;26.43;23.83;;;19.20;1.00;;;;;;6254834;23;20406;-85
2023/06/20 03:15:51;;;;;;;27.03;24.20;;;19.20;1.00;;;;;;6254047;23;20402;-85
2023/06/20 03:18:18;;;;;;;26.60;24.07;;;19.10;1.00;;;;;;6256450;22;20512;-85
2023/06/20 03:20:48;;;;;;;25.80;23.30;;;19.10;99.90;;;;;;6259543;23;20444;-85
2023/06/20 03:23:15;;;;;;;27.50;24.97;;;18.90;1.00;;;;;;6263249;23;20402;-85
2023/06/20 03:25:42;;;;;;;28.53;25.67;;;;;;;;;;6258211;23;20497;-85
2023/06/20 03:28:09;;;;;;;27.23;24.57;;;19.10;1.00;;;;;;6250913;22;20425;-85
2023/06/20 03:30:36;;;;;;;27.87;25.00;;;19.10;1.00;;;;;;6250691;23;20496;-85
2023/06/20 03:33:03;;;;;;;28.07;25.47;;;18.70;99.90;;;;;;6252259;23;20429;-85
2023/06/20 03:35:30;;;;;;;27.80;25.13;;;;;;;;;;6253441;23;20397;-85
2023/06/20 03:37:58;;;;;;;25.73;23.43;;;19.10;1.00;;;;;;6251976;22;20492;-85
2023/06/20 03:40:25;;;;;;;26.57;23.97;;;19.20;1.00;;;;;;6253451;23;20429;-85
2023/06/20 03:42:52;;;;;;;28.00;25.40;;;19.20;99.90;;;;;;6253299;23;20409;-85
2023/06/20 03:45:19;;;;;;;30.10;25.53;;;19.10;1.00;;;;;;6254276;23;20410;-86
2023/06/20 03:47:46;;;;;;;27.67;24.87;;;19.30;1.00;;;;;;6253672;22;20430;-85
2023/06/20 03:50:13;;;;;;;27.90;25.17;;;19.40;99.90;;;;;;6253736;23;20488;-85
2023/06/20 03:52:39;;;;;;;28.50;25.70;;;19.40;38.80;;;;;;6253845;23;20469;-85
2023/06/20 03:55:09;;;;;;;26.70;24.20;;;19.50;1.00;;;;;;6252822;23;20547;-85
2023/06/20 03:57:35;;;;;;;27.33;24.63;;;19.50;1.00;;;;;;6252786;22;21021;-85
2023/06/20 04:00:07;;;;;;;24.17;21.97;;;;;;;;;;6257305;23;20389;-86
2023/06/20 04:02:36;;;;;;;26.97;24.00;;;19.60;99.90;;;;;;6265707;23;20382;-85
2023/06/20 04:05:02;;;;;;;26.47;23.90;;;19.70;53.90;;;;;;6268018;23;20402;-85
2023/06/20 04:07:31;;;;;;;27.90;25.40;;;19.70;1.00;;;;;;6262297;22;20892;-85
2023/06/20 04:09:58;;;;;;;25.60;23.30;;;19.70;1.00;;;;;;6259549;23;20413;-85
2023/06/20 04:12:26;;;;;;;26.40;23.50;;;19.70;1.00;;;;;;6256091;23;20394;-86
2023/06/20 04:14:53;;;;;;;29.23;26.23;;;19.70;1.00;;;;;;6254473;23;20409;-86
2023/06/20 04:17:21;;;;;;;27.63;24.80;;;19.30;1.00;;;;;;6258458;22;20448;-89
2023/06/20 04:19:48;;;;;;;28.03;25.07;;;;;;;;;;6258485;23;20743;-88
2023/06/20 04:22:17;;;;;;;28.53;25.43;;;;;;;;;;6249580;23;20409;-88
2023/06/20 04:24:44;;;;;;;23.87;21.50;;;19.70;99.90;;;;;;6250101;23;20797;-88
2023/06/20 04:27:11;;;;;;;26.53;24.10;;;20.60;1.00;;;;;;6249530;22;20820;-88
2023/06/20 04:29:40;;;;;;;28.40;25.53;;;19.80;99.90;;;;;;6250915;23;20413;-88
2023/06/20 04:32:07;;;;;;;27.37;24.73;;;19.90;1.00;;;;;;6249920;23;20488;-88
2023/06/20 04:34:34;;;;;;;27.20;24.27;;;;;;;;;;6257712;23;20390;-88
2023/06/20 04:37:04;;;;;;;28.47;25.57;;;;;;;;;;6258383;22;20443;-88
2023/06/20 04:39:31;;;;;;;30.03;27.03;;;19.90;99.90;;;;;;6250521;23;20500;-88
2023/06/20 04:41:58;;;;;;;27.47;24.57;;;;;;;;;;6250142;23;20488;-88
2023/06/20 04:44:25;;;;;;;28.53;25.47;;;;;;;;;;6249911;23;20754;-88
2023/06/20 04:46:55;;;;;;;30.70;27.20;;;20.00;16.40;;;;;;6251823;23;20509;-88
2023/06/20 04:49:22;;;;;;;29.07;26.17;;;;;;;;;;6250879;23;20920;-88
2023/06/20 04:51:49;;;;;;;28.00;25.13;;;;;;;;;;6267346;23;20417;-88
2023/06/20 04:54:17;;;;;;;30.57;27.57;;;;;;;;;;6273809;22;20394;-87
2023/06/20 04:56:43;;;;;;;28.57;25.60;;;20.20;99.90;;;;;;6266964;22;20398;-88
2023/06/20 04:59:11;;;;;;;28.20;25.43;;;;;;;;;;6262186;22;20447;-88
2023/06/20 05:01:39;;;;;;;28.80;25.20;;;;;;;;;;6271853;22;20434;-90
2023/06/20 05:04:07;;;;;;;28.37;25.57;;;20.30;99.90;;;;;;6271815;23;20393;-88
2023/06/20 05:06:34;;;;;;;27.40;24.80;;;20.20;99.90;;;;;;6269206;23;20906;-87
2023/06/20 05:09:01;;;;;;;28.87;26.17;;;;;;;;;;6266867;22;20495;-87
2023/06/20 05:11:29;;;;;;;28.07;25.17;;;;;;;;;;6273200;23;20405;-87
2023/06/20 05:14:00;;;;;;;30.40;27.60;;;;;;;;;;6273884;22;20392;-87
2023/06/20 05:16:32;;;;;;;30.50;27.50;;;20.40;99.90;;;;;;6272098;22;20401;-87
2023/06/20 05:19:02;;;;;;;30.90;27.90;;;;;;;;;;6250695;22;20543;-87
2023/06/20 05:21:30;;;;;;;28.33;25.60;;;20.50;1.00;;;;;;6250749;23;20425;-88
2023/06/20 05:24:00;;;;;;;33.70;26.47;;;20.50;99.90;;;;;;6250889;23;20405;-87
2023/06/20 05:26:27;;;;;;;29.73;26.63;;;;;;;;;;6248979;23;20973;-88
2023/06/20 05:28:55;;;;;;;29.67;26.60;;;;;;;;;;6249550;22;20429;-87
2023/06/20 05:31:24;;;;;;;28.63;25.77;;;;;;;;;;6250123;23;20401;-88
2023/06/20 05:33:54;;;;;;;27.67;24.97;;;20.50;99.90;;;;;;6250047;23;20431;-87
2023/06/20 05:36:21;;;;;;;30.80;25.97;;;;;;;;;;6249374;23;20477;-88
2023/06/20 05:38:51;;;;;;;31.47;27.77;;;20.60;99.90;;;;;;6249211;22;20484;-88
2023/06/20 05:41:18;;;;;;;30.97;27.87;;;;;;;;;;6249596;23;20405;-88
2023/06/20 05:43:45;;;;;;;28.80;25.90;;;;;;;;;;6253165;23;20417;-88
2023/06/20 05:46:13;;;;;;;30.83;27.83;;;;;;;;;;6254458;23;20432;-88
2023/06/20 05:48:40;;;;;;;31.13;27.90;;;;;;;;;;6249881;22;20472;-88
2023/06/20 05:51:12;;;;;;;31.03;26.90;;;20.70;99.90;;;;;;6250673;23;20417;-88
2023/06/20 05:53:41;;;;;;;30.13;27.03;;;;;;;;;;6249983;23;20746;-88
2023/06/20 05:56:37;;;;;;;31.50;26.53;;;20.70;99.90;;;;;;6249323;23;20948;-88
2023/06/20 05:59:08;;;;;;;31.67;26.27;;;;;;;;;;6245859;22;20957;-88
2023/06/20 06:01:40;;;;;;;29.07;26.20;;;20.70;99.90;;;;;;6249255;23;20489;-88
2023/06/20 06:04:07;;;;;;;28.67;25.70;;;;;;;;;;6251033;23;20378;-88
2023/06/20 06:06:35;;;;;;;31.10;28.20;;;;;;;;;;6250262;23;20967;-88
2023/06/20 06:09:04;;;;;;;29.53;26.53;;;;;;;;;;6250880;22;20807;-89
2023/06/20 06:11:46;;;;;;;32.20;28.37;;;21.00;99.90;;;;;;6249323;23;20409;-89
2023/06/20 06:14:16;;;;;;;30.27;27.20;;;21.10;99.90;;;;;;6250139;23;20477;-89
2023/06/20 06:16:44;;;;;;;28.03;25.23;;;;;;;;;;6249377;23;20472;-89
2023/06/20 06:19:11;;;;;;;26.63;23.87;;;;;;;;;;6250058;22;20480;-88
2023/06/20 06:21:40;;;;;;;34.30;28.40;;;;;;;;;;6250354;23;20406;-88
2023/06/20 06:24:09;;;;;;;28.77;25.97;;;;;;;;;;6264420;23;20419;-88
2023/06/20 06:26:36;;;;;;;29.90;25.70;;;;;;;;;;6266050;23;20540;-89
2023/06/20 06:29:05;;;;;;;33.57;30.27;;;21.50;99.90;;;;;;6256661;22;20761;-89
2023/06/20 06:31:37;;;;;;;30.30;27.30;;;21.60;1.00;;;;;;6254757;23;20413;-89
2023/06/20 06:34:04;;;;;;;32.00;28.53;;;;;;;;;;6248901;23;20410;-89
2023/06/20 06:36:35;;;;;;;30.30;26.77;;;21.70;99.90;;;;;;6254596;23;20715;-89
2023/06/20 06:39:02;;;;;;;32.10;28.63;;;;;;;;;;6273989;22;20444;-88
2023/06/20 06:41:31;;;;;;;33.70;30.43;;;;;;;;;;6269604;23;20507;-88
2023/06/20 06:43:58;;;;;;;29.37;26.27;;;;;;;;;;6260124;23;20420;-89
2023/06/20 06:46:26;;;;;;;26.77;24.10;;;22.00;99.90;;;;;;6259352;23;20440;-88
2023/06/20 06:48:54;;;;;;;31.10;27.90;;;;;;;;;;6270812;22;20416;-88
2023/06/20 06:51:21;;;;;;;30.50;27.30;;;21.70;1.00;;;;;;6272497;22;20398;-88
2023/06/20 06:53:48;;;;;;;31.60;28.43;;;21.80;99.90;;;;;;6261788;23;20409;-89
2023/06/20 06:56:16;;;;;;;33.30;30.10;;;;;;;;;;6263795;23;20412;-88
2023/06/20 06:58:43;;;;;;;29.37;26.47;;;;;;;;;;6253449;22;20455;-89
2023/06/20 07:01:13;;;;;;;34.00;26.93;;;22.50;99.90;;;;;;6252832;23;20462;-88
2023/06/20 07:03:42;;;;;;;28.67;25.87;;;22.60;99.90;;;;;;6249240;23;20420;-88
2023/06/20 07:06:09;;;;;;;31.07;27.93;;;22.60;1.00;;;;;;6250509;23;20442;-89
2023/06/20 07:08:36;;;;;;;30.40;27.37;;;;;;;;;;6260978;22;20441;-88
2023/06/20 07:11:03;;;;;;;31.70;28.30;;;22.60;49.50;;;;;;6273951;22;20394;-87
2023/06/20 07:13:30;;;;;;;32.53;29.40;;;23.00;1.00;;;;;;6272088;22;20397;-89
2023/06/20 07:15:57;;;;;;;32.53;29.63;;;;;;;;;;6273583;22;20405;-88
2023/06/20 07:18:24;;;;;;;28.60;26.00;;;;;;;;;;6258612;22;20820;-89
2023/06/20 07:20:52;;;;;;;29.47;26.80;;;22.90;93.40;;;;;;6250460;23;20448;-89
2023/06/20 07:23:23;;;;;;;30.60;27.70;;;;;;;;;;6250389;23;20506;-89
2023/06/20 07:25:52;;;;;;;28.87;25.90;;;23.10;1.00;;;;;;6252057;23;20397;-89
2023/06/20 07:28:31;;;;;;;29.03;26.30;;;;;;;;;;6250286;22;20449;-89
2023/06/20 07:30:58;;;;;;;32.83;29.53;;;;;;;;;;6251251;23;20405;-89
2023/06/20 07:33:27;;;;;;;30.80;27.93;;;23.20;1.00;;;;;;6249636;23;20396;-89
2023/06/20 07:35:56;;;;;;;35.63;32.03;;;23.20;1.00;;;;;;6249982;23;20528;-89
2023/06/20 07:38:23;;;;;;;31.93;28.53;;;;;;;;;;6258979;22;20456;-89
2023/06/20 07:40:50;;;;;;;33.57;30.20;;;;;;;;;;6261110;23;20497;-89
2023/06/20 07:43:19;;;;;;;32.77;29.20;;;;;;;;;;6256899;23;20539;-89
2023/06/20 07:45:51;;;;;;;29.43;26.50;;;23.60;1.00;;;;;;6259646;23;20416;-89
2023/06/20 07:48:24;;;;;;;29.67;26.97;;;;;;;;;;6250167;22;20444;-89
2023/06/20 07:50:51;;;;;;;32.53;29.43;;;;;;;;;;6249201;23;20397;-89
2023/06/20 07:53:19;;;;;;;32.17;28.77;;;23.70;99.90;;;;;;6248191;23;20463;-89
2023/06/20 07:55:46;;;;;;;32.57;29.20;;;;;;;;;;6248760;23;20437;-89
2023/06/20 07:58:14;;;;;;;30.10;27.00;;;;;;;;;;6255777;22;20433;-86
2023/06/20 08:00:43;;;;;;;34.10;30.80;;;;;;;;;;6266516;23;20397;-86
2023/06/20 08:03:21;;;;;;;29.10;26.40;;;24.00;99.90;;;;;;6257781;23;20406;-86
2023/06/20 08:05:51;;;;;;;31.77;28.67;;;24.20;99.90;;;;;;6251723;23;20409;-86
2023/06/20 08:08:26;;;;;;;32.43;29.47;;;24.20;99.90;;;;;;6255450;22;20467;-86
2023/06/20 08:10:53;;;;;;;38.93;34.97;;;;;;;;;;6266202;23;20419;-84
2023/06/20 08:13:20;;;;;;;33.53;30.33;;;;;;;;;;6273931;22;20393;-85
2023/06/20 08:15:49;;;;;;;35.77;32.33;;;;;;;;;;6265259;23;20425;-87
2023/06/20 08:18:19;;;;;;;30.87;27.77;;;;;;;;;;6254964;22;20426;-86
2023/06/20 08:20:48;;;;;;;29.77;27.10;;;24.20;99.90;;;;;;6251439;23;20376;-86
2023/06/20 08:23:25;;;;;;;30.10;27.40;;;24.20;99.90;;;;;;6250606;23;20398;-86
2023/06/20 08:25:56;;;;;;;31.40;28.37;;;24.10;1.00;;;;;;6253003;23;20397;-86
2023/06/20 08:28:23;;;;;;;38.80;34.90;;;;;;;;;;6251905;22;20759;-86
2023/06/20 08:30:50;;;;;;;29.37;26.77;;;24.10;1.00;;;;;;6251189;23;20484;-86
2023/06/20 08:33:19;;;;;;;30.73;27.70;;;24.10;99.90;;;;;;6250302;23;20492;-86
2023/06/20 08:35:46;;;;;;;29.53;26.60;;;24.10;99.90;;;;;;6257341;23;20448;-85
2023/06/20 08:38:13;;;;;;;30.60;27.57;;;24.00;1.00;;;;;;6253937;22;20418;-86
2023/06/20 08:40:41;;;;;;;30.20;27.17;;;24.00;1.00;;;;;;6249631;23;20481;-86
2023/06/20 08:43:13;;;;;;;32.57;29.50;;;24.00;1.00;;;;;;6250376;23;20953;-86
2023/06/20 08:45:40;;;;;;;30.37;27.43;;;24.00;1.00;;;;;;6250384;23;20866;-86
2023/06/20 08:48:07;;;;;;;30.37;27.20;;;24.00;1.00;;;;;;6259897;22;20469;-86
2023/06/20 08:50:34;;;;;;;31.00;28.03;;;;;;;;;;6271190;23;20381;-85
2023/06/20 08:53:02;;;;;;;30.90;27.97;;;24.00;1.00;;;;;;6269856;23;20412;-86
2023/06/20 08:55:29;;;;;;;31.87;28.70;;;;;;;;;;6257531;23;20886;-86
2023/06/20 08:57:58;;;;;;;31.07;27.77;;;24.00;99.90;;;;;;6252403;22;20436;-86
2023/06/20 09:00:25;;;;;;;32.10;29.00;;;;;;;;;;6253562;23;20531;-86
2023/06/20 09:02:52;;;;;;;31.50;28.47;;;24.10;79.90;;;;;;6267021;23;20457;-87
2023/06/20 09:05:20;;;;;;;32.93;29.80;;;24.10;1.00;;;;;;6257512;23;20475;-86
2023/06/20 09:07:47;;;;;;;31.83;28.80;;;24.10;99.90;;;;;;6253854;22;20475;-86
2023/06/20 09:10:19;;;;;;;30.87;27.80;;;24.10;99.90;;;;;;6254787;23;20459;-86
2023/06/20 09:12:48;;;;;;;29.53;26.57;;;24.10;99.90;;;;;;6265993;22;20390;-86
2023/06/20 09:15:18;;;;;;;31.53;28.23;;;24.00;99.90;;;;;;6256428;23;20496;-85
2023/06/20 09:17:45;;;;;;;31.63;28.73;;;23.90;1.00;;;;;;6253633;22;20831;-85
2023/06/20 09:20:14;;;;;;;36.00;32.30;;;23.90;99.90;;;;;;6253304;23;20808;-85
2023/06/20 09:22:42;;;;;;;31.80;28.80;;;23.70;1.30;;;;;;6257499;23;20413;-84
2023/06/20 09:25:10;;;;;;;33.63;30.20;;;23.60;99.90;;;;;;6256369;23;20763;-87
2023/06/20 09:27:39;;;;;;;36.20;32.50;;;23.60;99.90;;;;;;6252894;22;20445;-87
2023/06/20 09:30:07;;;;;;;38.20;32.40;;;23.50;99.90;;;;;;6259145;22;20393;-86
2023/06/20 09:32:36;;;;;;;37.43;33.70;;;23.40;99.90;;;;;;6275179;22;20398;-86
2023/06/20 09:35:05;;;;;;;38.70;34.83;;;23.10;99.90;;;;;;6274651;22;20390;-87
2023/06/20 09:37:41;;;;;;;35.60;32.03;;;22.70;1.00;;;;;;6267721;22;20421;-87
2023/06/20 09:40:10;;;;;;;33.87;30.27;;;22.30;1.00;;;;;;6255917;23;20381;-87
2023/06/20 09:42:38;;;;;;;33.00;29.90;;;22.00;99.90;;;;;;6253374;23;20465;-87
2023/06/20 09:45:07;;;;;;;36.60;32.70;;;21.50;1.00;;;;;;6256882;23;20433;-87
2023/06/20 09:47:37;;;;;;;35.30;31.60;;;21.30;99.90;;;;;;6254006;22;20469;-87
2023/06/20 09:50:09;;;;;;;33.30;30.20;;;21.20;99.90;;;;;;6263308;23;20438;-87
2023/06/20 09:52:40;;;;;;;35.93;31.57;;;21.00;1.00;;;;;;6270903;23;20425;-87
2023/06/20 09:55:10;;;;;;;36.23;32.57;;;20.80;99.90;;;;;;6273092;23;20399;-87
2023/06/20 09:57:40;;;;;;;37.87;33.90;;;20.60;99.90;;;;;;6261566;22;20430;-87
2023/06/20 10:00:14;;;;;;;38.53;34.53;;;20.50;1.00;;;;;;6268812;23;20385;-87
2023/06/20 10:02:45;;;;;;;41.97;35.60;;;20.40;99.90;;;;;;6274336;22;20382;-86
2023/06/20 10:05:14;;;;;;;36.70;33.13;;;20.30;99.90;;;;;;6274086;22;20401;-87
2023/06/20 10:07:43;;;;;;;38.43;34.50;;;20.10;99.90;;;;;;6264654;22;20472;-88
2023/06/20 10:10:11;;;;;;;39.07;34.27;;;20.10;99.90;;;;;;6262115;23;20440;-87
2023/06/20 10:12:39;;;;;;;43.20;38.50;;;20.00;99.90;;;;;;6260238;23;20436;-87
2023/06/20 10:15:08;;;;;;;47.10;39.60;;;20.00;99.90;;;;;;6262008;23;20404;-88
2023/06/20 10:17:39;;;;;;;41.53;36.23;;;20.00;99.90;;;;;;6258880;22;20524;-88
2023/06/20 10:20:23;;;;;;;42.17;37.67;;;19.90;99.90;;;;;;6258203;23;20409;-88
2023/06/20 10:22:57;;;;;;;42.23;37.73;;;19.70;99.90;;;;;;6257406;23;20385;-88
2023/06/20 10:25:25;;;;;;;40.90;36.60;;;;;;;;;;6257919;23;20738;-88
2023/06/20 10:27:56;;;;;;;45.83;39.10;;;19.60;99.90;;;;;;6256990;22;20442;-87
2023/06/20 10:31:05;;;;;;;43.17;38.33;;;19.90;99.90;;;;;;6261167;23;20398;-88
2023/06/20 10:33:33;;;;;;;42.00;36.80;;;19.40;99.90;;;;;;6202316;23;20417;-87
2023/06/20 10:36:03;;;;;;;41.83;37.43;;;19.50;99.90;;;;;;6256082;23;20436;-88
2023/06/20 10:38:32;;;;;;;47.53;41.17;;;19.50;99.90;;;;;;6258270;22;20945;-87
2023/06/20 10:41:13;;;;;;;45.60;39.27;;;19.50;99.90;;;;;;6257416;23;20422;-88
2023/06/20 10:43:51;;;;;;;49.63;43.67;;;19.50;99.90;;;;;;6256595;23;20450;-88
2023/06/20 10:46:19;;;;;;;53.30;43.67;;;19.50;99.90;;;;;;6256156;23;20424;-87
2023/06/20 10:48:46;;;;;;;63.77;46.10;;;19.60;99.90;;;;;;6256606;22;20471;-88
2023/06/20 10:51:14;;;;;;;54.67;46.20;;;19.60;99.90;;;;;;6257739;23;20405;-88
2023/06/20 10:53:41;;;;;;;55.10;45.37;;;19.70;99.90;;;;;;6258054;23;20427;-88
2023/06/20 10:56:11;;;;;;;50.87;42.93;;;19.60;99.90;;;;;;6257006;23;20413;-87
2023/06/20 10:58:38;;;;;;;53.30;42.43;;;19.20;99.90;;;;;;6256168;22;20445;-87
2023/06/20 11:01:07;;;;;;;54.53;43.97;;;;;;;;;;6274024;22;20410;-85
2023/06/20 11:03:34;;;;;;;60.27;46.57;;;19.50;99.90;;;;;;6274876;22;20401;-86
2023/06/20 11:06:02;;;;;;;58.03;46.73;;;19.60;99.90;;;;;;6274889;22;20378;-86
2023/06/20 11:08:30;;;;;;;59.03;47.00;;;19.80;99.90;;;;;;6274297;22;20449;-86
2023/06/20 11:10:57;;;;;;;58.40;45.47;;;19.60;99.90;;;;;;6268910;22;20893;-87
2023/06/20 11:13:24;;;;;;;55.17;44.60;;;19.50;99.90;;;;;;6271766;23;20416;-87
2023/06/20 11:15:51;;;;;;;55.50;47.57;;;19.50;99.90;;;;;;6265059;23;20408;-87
2023/06/20 11:18:18;;;;;;;61.40;46.40;;;19.60;99.90;;;;;;6267851;22;20448;-86
2023/06/20 11:20:45;;;;;;;63.33;47.27;;;19.70;99.90;;;;;;6264954;23;20417;-86
2023/06/20 11:23:13;;;;;;;55.03;46.20;;;19.70;99.90;;;;;;6259177;23;20433;-87
2023/06/20 11:25:43;;;;;;;56.33;48.07;;;19.70;99.90;;;;;;6261852;23;20385;-87
2023/06/20 11:28:13;;;;;;;51.90;46.37;;;19.80;99.90;;;;;;6265761;22;20455;-86
2023/06/20 11:30:43;;;;;;;54.20;46.87;;;19.70;99.90;;;;;;6255674;23;20409;-88
2023/06/20 11:33:11;;;;;;;53.93;48.00;;;19.80;99.90;;;;;;6252551;23;20440;-88
2023/06/20 11:35:49;;;;;;;56.47;49.07;;;19.90;99.90;;;;;;6252823;23;20438;-88
2023/06/20 11:38:19;;;;;;;49.83;44.43;;;20.00;99.90;;;;;;6254856;22;20451;-87
2023/06/20 11:41:01;;;;;;;54.43;47.07;;;19.90;99.90;;;;;;6259787;23;20443;-87
2023/06/20 11:43:34;;;;;;;53.93;45.60;;;19.90;99.90;;;;;;6258142;23;20392;-86
2023/06/20 11:46:02;;;;;;;52.30;45.00;;;19.90;99.90;;;;;;6260596;23;20944;-87
2023/06/20 11:48:30;;;;;;;51.13;45.67;;;20.00;99.90;;;;;;6257605;22;20445;-87
2023/06/20 11:50:58;;;;;;;56.23;45.00;;;20.00;99.90;;;;;;6268202;23;20866;-88
2023/06/20 11:53:33;;;;;;;50.40;44.57;;;20.10;99.90;;;;;;6272538;23;20408;-87
2023/06/20 11:56:12;;;;;;;49.80;44.30;;;20.10;99.90;;;;;;6230167;23;20738;-87
2023/06/20 11:58:40;;;;;;;50.30;43.97;;;20.10;99.90;;;;;;6223860;23;20528;-86
2023/06/20 12:01:14;;;;;;;46.60;41.57;;;20.20;99.90;;;;;;6225235;23;20734;-87
2023/06/20 12:03:44;;;;;;;50.40;44.93;;;20.20;99.90;;;;;;6224319;23;20387;-87
2023/06/20 12:06:28;;;;;;;44.20;39.40;;;20.20;99.90;;;;;;6226471;23;20403;-87
2023/06/20 12:08:57;;;;;;;49.17;44.00;;;20.20;99.90;;;;;;6223315;23;20430;-88
2023/06/20 12:11:33;;;;;;;50.40;44.83;;;20.30;99.90;;;;;;6223893;23;20788;-87
2023/06/20 12:14:08;;;;;;;47.27;42.13;;;;;;;;;;6223179;23;20866;-87
2023/06/20 12:16:36;;;;;;;48.80;40.77;;;;;;;;;;6222880;23;20482;-87
2023/06/20 12:19:05;;;;;;;47.40;42.33;;;;;;;;;;6222025;23;20443;-87
2023/06/20 12:21:32;;;;;;;47.60;39.23;;;;;;;;;;6222211;23;20430;-87
2023/06/20 12:24:15;;;;;;;42.90;38.33;;;20.80;99.90;;;;;;6223246;23;20414;-87
2023/06/20 12:26:51;;;;;;;44.73;39.40;;;21.00;99.90;;;;;;6222395;23;20401;-87
2023/06/20 12:29:19;;;;;;;45.90;41.40;;;;;;;;;;6224311;23;20441;-87
2023/06/20 12:31:49;;;;;;;40.67;36.57;;;21.00;99.90;;;;;;6223311;23;20716;-87
2023/06/20 12:34:19;;;;;;;43.00;38.60;;;;;;;;;;6225370;23;20774;-87
2023/06/20 12:36:51;;;;;;;43.00;38.53;;;;;;;;;;6225530;23;20886;-87
2023/06/20 12:39:19;;;;;;;41.60;37.30;;;;;;;;;;6225209;23;20457;-87
2023/06/20 12:41:50;;;;;;;42.00;36.70;;;21.60;99.90;;;;;;6229511;23;20746;-87
2023/06/20 12:44:17;;;;;;;38.90;34.77;;;;;;;;;;6226644;23;20850;-88
2023/06/20 12:46:45;;;;;;;41.27;37.10;;;;;;;;;;6226298;23;20408;-86
2023/06/20 12:49:12;;;;;;;35.60;32.07;;;;;;;;;;6224955;23;20441;-87
2023/06/20 12:51:40;;;;;;;32.60;29.47;;;;;;;;;;6225522;23;20477;-87
2023/06/20 12:54:18;;;;;;;33.77;30.53;;;;;;;;;;6224800;23;20444;-87
2023/06/20 12:56:45;;;;;;;32.97;29.53;;;;;;;;;;6227812;23;20368;-87
2023/06/20 12:59:18;;;;;;;38.53;30.53;;;22.20;99.90;;;;;;6227566;23;20430;-85
2023/06/20 13:01:45;;;;;;;35.30;32.00;;;;;;;;;;6238649;23;20390;-86
2023/06/20 13:04:19;;;;;;;33.63;30.13;;;22.40;99.90;;;;;;6245832;23;20382;-86
2023/06/20 13:06:47;;;;;;;31.70;28.50;;;;;;;;;;6235521;23;20792;-87
2023/06/20 13:09:14;;;;;;;35.70;31.90;;;;;;;;;;6235512;23;20450;-88